sensor_id;sensor_type;location;lat;lon;timestamp;pressure;altitude;pressure_sealevel;temperature;humidity
7662;BME280;30314;48.184;11.510;2022-08-19T00:01:38;95468.50;;;17.39;100.00
7662;BME280;30314;48.184;11.510;2022-08-19T00:04:10;95473.56;;;17.44;100.00
7662;BME280;30314;48.184;11.510;2022-08-19T00:06:39;95451.47;;;17.15;100.00
7662;BME280;30314;48.184;11.510;2022-08-19T00:09:10;95485.38;;;17.43;100.00
7662;BME280;30314;48.184;11.510;2022-08-19T00:11:39;95454.06;;;17.27;100.00
7662;BME280;30314;48.184;11.510;2022-08-19T00:14:08;95400.25;;;16.97;100.00
7662;BME280;30314;48.184;11.510;2022-08-19T00:16:37;95416.41;;;17.00;100.00
7662;BME280;30314;48.184;11.510;2022-08-19T00:19:06;95485.47;;;17.46;100.00
7662;BME280;30314;48.184;11.510;2022-08-19T00:21:34;95383.75;;;16.79;100.00
7662;BME280;30314;48.184;11.510;2022-08-19T00:24:05;95469.78;;;17.45;100.00
7662;BME280;30314;48.184;11.510;2022-08-19T00:26:33;95452.44;;;17.39;100.00
7662;BME280;30314;48.184;11.510;2022-08-19T00:29:04;95437.19;;;17.39;100.00
7662;BME280;30314;48.184;11.510;2022-08-19T00:31:33;95443.06;;;17.45;100.00
7662;BME280;30314;48.184;11.510;2022-08-19T00:34:01;95438.13;;;17.47;100.00
7662;BME280;30314;48.184;11.510;2022-08-19T00:36:29;95396.94;;;17.16;100.00
7662;BME280;30314;48.184;11.510;2022-08-19T00:38:59;95441.50;;;17.44;100.00
7662;BME280;30314;48.184;11.510;2022-08-19T00:41:27;95446.25;;;17.51;100.00
7662;BME280;30314;48.184;11.510;2022-08-19T00:44:00;95451.25;;;17.52;100.00
7662;BME280;30314;48.184;11.510;2022-08-19T00:46:30;95441.31;;;17.53;100.00
7662;BME280;30314;48.184;11.510;2022-08-19T00:48:59;95436.31;;;17.51;100.00
7662;BME280;30314;48.184;11.510;2022-08-19T00:51:29;95417.44;;;17.44;100.00
7662;BME280;30314;48.184;11.510;2022-08-19T00:53:59;95427.88;;;17.49;100.00
7662;BME280;30314;48.184;11.510;2022-08-19T00:56:28;95310.75;;;16.87;100.00
7662;BME280;30314;48.184;11.510;2022-08-19T00:58:58;95325.81;;;16.95;100.00
7662;BME280;30314;48.184;11.510;2022-08-19T01:01:26;95351.72;;;17.07;100.00
7662;BME280;30314;48.184;11.510;2022-08-19T01:03:55;95391.69;;;17.19;100.00
7662;BME280;30314;48.184;11.510;2022-08-19T01:06:24;95406.50;;;17.33;100.00
7662;BME280;30314;48.184;11.510;2022-08-19T01:08:53;95385.13;;;17.17;100.00
7662;BME280;30314;48.184;11.510;2022-08-19T01:11:21;95423.22;;;17.46;100.00
7662;BME280;30314;48.184;11.510;2022-08-19T01:13:50;95407.28;;;17.33;100.00
7662;BME280;30314;48.184;11.510;2022-08-19T01:16:21;95407.53;;;17.44;100.00
7662;BME280;30314;48.184;11.510;2022-08-19T01:18:54;95390.38;;;17.29;100.00
7662;BME280;30314;48.184;11.510;2022-08-19T01:21:28;95418.75;;;17.34;100.00
7662;BME280;30314;48.184;11.510;2022-08-19T01:24:00;95391.69;;;17.19;100.00
7662;BME280;30314;48.184;11.510;2022-08-19T01:26:27;95418.06;;;17.37;100.00
7662;BME280;30314;48.184;11.510;2022-08-19T01:28:58;95397.09;;;17.23;100.00
7662;BME280;30314;48.184;11.510;2022-08-19T01:31:28;95412.72;;;17.37;100.00
7662;BME280;30314;48.184;11.510;2022-08-19T01:33:59;95413.94;;;17.40;100.00
7662;BME280;30314;48.184;11.510;2022-08-19T01:36:31;95429.25;;;17.43;100.00
7662;BME280;30314;48.184;11.510;2022-08-19T01:39:03;95386.66;;;17.02;100.00
7662;BME280;30314;48.184;11.510;2022-08-19T01:41:32;95426.94;;;17.25;100.00
7662;BME280;30314;48.184;11.510;2022-08-19T01:44:00;95433.56;;;17.31;100.00
7662;BME280;30314;48.184;11.510;2022-08-19T01:46:45;95442.28;;;17.28;100.00
7662;BME280;30314;48.184;11.510;2022-08-19T01:49:16;95437.25;;;17.27;100.00
7662;BME280;30314;48.184;11.510;2022-08-19T01:51:44;95415.44;;;17.09;100.00
7662;BME280;30314;48.184;11.510;2022-08-19T01:54:15;95448.56;;;17.36;100.00
7662;BME280;30314;48.184;11.510;2022-08-19T01:56:56;95443.41;;;17.27;100.00
7662;BME280;30314;48.184;11.510;2022-08-19T01:59:25;95458.47;;;17.36;100.00
7662;BME280;30314;48.184;11.510;2022-08-19T02:01:53;95445.97;;;17.24;100.00
7662;BME280;30314;48.184;11.510;2022-08-19T02:04:20;95455.56;;;17.41;100.00
7662;BME280;30314;48.184;11.510;2022-08-19T02:06:49;95442.69;;;17.30;100.00
7662;BME280;30314;48.184;11.510;2022-08-19T02:09:18;95423.16;;;17.26;100.00
7662;BME280;30314;48.184;11.510;2022-08-19T02:11:46;95371.84;;;17.04;100.00
7662;BME280;30314;48.184;11.510;2022-08-19T02:14:14;95363.38;;;16.86;100.00
7662;BME280;30314;48.184;11.510;2022-08-19T02:16:42;95453.53;;;17.38;100.00
7662;BME280;30314;48.184;11.510;2022-08-19T02:19:09;95406.84;;;16.99;100.00
7662;BME280;30314;48.184;11.510;2022-08-19T02:21:37;95405.75;;;16.88;100.00
7662;BME280;30314;48.184;11.510;2022-08-19T02:24:05;95476.94;;;17.41;100.00
7662;BME280;30314;48.184;11.510;2022-08-19T02:26:35;95380.38;;;16.66;100.00
7662;BME280;30314;48.184;11.510;2022-08-19T02:29:03;95463.38;;;17.33;100.00
7662;BME280;30314;48.184;11.510;2022-08-19T02:31:31;95475.44;;;17.43;100.00
7662;BME280;30314;48.184;11.510;2022-08-19T02:34:00;95480.13;;;17.46;100.00
7662;BME280;30314;48.184;11.510;2022-08-19T02:36:27;95427.25;;;17.08;100.00
7662;BME280;30314;48.184;11.510;2022-08-19T02:38:56;95478.13;;;17.43;100.00
7662;BME280;30314;48.184;11.510;2022-08-19T02:41:25;95473.22;;;17.45;100.00
7662;BME280;30314;48.184;11.510;2022-08-19T02:43:55;95455.38;;;17.33;100.00
7662;BME280;30314;48.184;11.510;2022-08-19T02:46:46;95455.13;;;17.39;100.00
7662;BME280;30314;48.184;11.510;2022-08-19T02:49:14;95459.34;;;17.40;100.00
7662;BME280;30314;48.184;11.510;2022-08-19T02:51:44;95411.06;;;17.32;100.00
7662;BME280;30314;48.184;11.510;2022-08-19T02:54:14;95316.69;;;16.80;100.00
7662;BME280;30314;48.184;11.510;2022-08-19T02:56:43;95416.06;;;17.50;100.00
7662;BME280;30314;48.184;11.510;2022-08-19T02:59:12;95418.72;;;17.50;100.00
7662;BME280;30314;48.184;11.510;2022-08-19T03:01:41;95414.00;;;17.43;100.00
7662;BME280;30314;48.184;11.510;2022-08-19T03:04:11;95407.78;;;17.55;100.00
7662;BME280;30314;48.184;11.510;2022-08-19T03:06:41;95399.78;;;17.39;100.00
7662;BME280;30314;48.184;11.510;2022-08-19T03:09:10;95404.94;;;17.48;100.00
7662;BME280;30314;48.184;11.510;2022-08-19T03:11:38;95391.41;;;17.25;100.00
7662;BME280;30314;48.184;11.510;2022-08-19T03:14:08;95423.91;;;17.43;100.00
7662;BME280;30314;48.184;11.510;2022-08-19T03:16:43;95436.91;;;17.44;100.00
7662;BME280;30314;48.184;11.510;2022-08-19T03:19:12;95430.72;;;17.40;100.00
7662;BME280;30314;48.184;11.510;2022-08-19T03:21:40;95434.94;;;17.41;100.00
7662;BME280;30314;48.184;11.510;2022-08-19T03:24:11;95418.81;;;17.38;100.00
7662;BME280;30314;48.184;11.510;2022-08-19T03:26:41;95443.47;;;17.47;100.00
7662;BME280;30314;48.184;11.510;2022-08-19T03:29:11;95458.75;;;17.46;100.00
7662;BME280;30314;48.184;11.510;2022-08-19T03:31:41;95448.38;;;17.29;100.00
7662;BME280;30314;48.184;11.510;2022-08-19T03:34:20;95436.94;;;17.28;100.00
7662;BME280;30314;48.184;11.510;2022-08-19T03:36:48;95350.69;;;16.67;100.00
7662;BME280;30314;48.184;11.510;2022-08-19T03:39:16;95452.44;;;17.39;100.00
7662;BME280;30314;48.184;11.510;2022-08-19T03:41:48;95449.69;;;17.35;100.00
7662;BME280;30314;48.184;11.510;2022-08-19T03:44:36;95453.38;;;17.30;100.00
7662;BME280;30314;48.184;11.510;2022-08-19T03:47:06;95339.38;;;16.58;100.00
7662;BME280;30314;48.184;11.510;2022-08-19T03:49:34;95442.19;;;17.25;100.00
7662;BME280;30314;48.184;11.510;2022-08-19T03:52:03;95424.84;;;17.35;100.00
7662;BME280;30314;48.184;11.510;2022-08-19T03:54:34;95446.00;;;17.40;100.00
7662;BME280;30314;48.184;11.510;2022-08-19T03:57:04;95434.00;;;17.33;100.00
7662;BME280;30314;48.184;11.510;2022-08-19T03:59:34;95443.81;;;17.29;100.00
7662;BME280;30314;48.184;11.510;2022-08-19T04:02:08;95436.34;;;17.35;100.00
7662;BME280;30314;48.184;11.510;2022-08-19T04:04:36;95376.97;;;16.97;100.00
7662;BME280;30314;48.184;11.510;2022-08-19T04:07:05;95442.00;;;17.33;100.00
7662;BME280;30314;48.184;11.510;2022-08-19T04:09:33;95419.59;;;17.22;100.00
7662;BME280;30314;48.184;11.510;2022-08-19T04:12:04;95435.03;;;17.29;100.00
7662;BME280;30314;48.184;11.510;2022-08-19T04:14:34;95437.69;;;17.29;100.00
7662;BME280;30314;48.184;11.510;2022-08-19T04:17:03;95326.53;;;16.47;100.00
7662;BME280;30314;48.184;11.510;2022-08-19T04:19:34;95390.91;;;16.90;100.00
7662;BME280;30314;48.184;11.510;2022-08-19T04:22:03;95431.66;;;17.16;100.00
7662;BME280;30314;48.184;11.510;2022-08-19T04:24:31;95373.88;;;16.79;100.00
7662;BME280;30314;48.184;11.510;2022-08-19T04:26:59;95430.09;;;17.15;100.00
7662;BME280;30314;48.184;11.510;2022-08-19T04:29:28;95431.47;;;17.09;100.00
7662;BME280;30314;48.184;11.510;2022-08-19T04:31:57;95438.06;;;17.27;100.00
7662;BME280;30314;48.184;11.510;2022-08-19T04:34:37;95441.84;;;17.26;100.00
7662;BME280;30314;48.184;11.510;2022-08-19T04:37:26;95388.31;;;16.78;100.00
7662;BME280;30314;48.184;11.510;2022-08-19T04:40:03;95436.38;;;17.07;100.00
7662;BME280;30314;48.184;11.510;2022-08-19T04:42:49;95455.78;;;17.19;100.00
7662;BME280;30314;48.184;11.510;2022-08-19T04:45:17;95460.53;;;17.26;100.00
7662;BME280;30314;48.184;11.510;2022-08-19T04:47:48;95416.31;;;16.84;100.00
7662;BME280;30314;48.184;11.510;2022-08-19T04:50:39;95470.63;;;17.49;100.00
7662;BME280;30314;48.184;11.510;2022-08-19T04:53:09;95466.25;;;17.41;100.00
7662;BME280;30314;48.184;11.510;2022-08-19T04:55:39;95373.09;;;16.79;100.00
7662;BME280;30314;48.184;11.510;2022-08-19T04:58:07;95339.09;;;16.47;100.00
7662;BME280;30314;48.184;11.510;2022-08-19T05:00:38;95480.47;;;17.45;100.00
7662;BME280;30314;48.184;11.510;2022-08-19T05:03:06;95500.44;;;17.35;100.00
7662;BME280;30314;48.184;11.510;2022-08-19T05:05:39;95489.66;;;17.31;100.00
7662;BME280;30314;48.184;11.510;2022-08-19T05:08:11;95487.06;;;17.19;100.00
7662;BME280;30314;48.184;11.510;2022-08-19T05:10:40;95440.03;;;16.86;100.00
7662;BME280;30314;48.184;11.510;2022-08-19T05:13:08;95485.94;;;17.20;100.00
7662;BME280;30314;48.184;11.510;2022-08-19T05:15:37;95487.44;;;17.33;100.00
7662;BME280;30314;48.184;11.510;2022-08-19T05:18:05;95387.50;;;16.61;100.00
7662;BME280;30314;48.184;11.510;2022-08-19T05:20:51;95494.16;;;17.43;100.00
7662;BME280;30314;48.184;11.510;2022-08-19T05:23:36;95481.91;;;17.26;100.00
7662;BME280;30314;48.184;11.510;2022-08-19T05:26:04;95492.53;;;17.39;100.00
7662;BME280;30314;48.184;11.510;2022-08-19T05:28:32;95436.56;;;16.85;100.00
7662;BME280;30314;48.184;11.510;2022-08-19T05:31:01;95491.16;;;17.45;100.00
7662;BME280;30314;48.184;11.510;2022-08-19T05:33:29;95456.03;;;17.14;100.00
7662;BME280;30314;48.184;11.510;2022-08-19T05:35:59;95483.41;;;17.40;100.00
7662;BME280;30314;48.184;11.510;2022-08-19T05:38:28;95417.16;;;17.01;100.00
7662;BME280;30314;48.184;11.510;2022-08-19T05:40:56;95478.56;;;17.45;100.00
7662;BME280;30314;48.184;11.510;2022-08-19T05:43:24;95458.66;;;17.43;100.00
7662;BME280;30314;48.184;11.510;2022-08-19T05:45:52;95480.03;;;17.43;100.00
7662;BME280;30314;48.184;11.510;2022-08-19T05:48:19;95474.59;;;17.39;100.00
7662;BME280;30314;48.184;11.510;2022-08-19T05:50:47;95378.09;;;16.80;100.00
7662;BME280;30314;48.184;11.510;2022-08-19T05:53:18;95465.81;;;17.39;100.00
7662;BME280;30314;48.184;11.510;2022-08-19T05:55:45;95479.34;;;17.46;100.00
7662;BME280;30314;48.184;11.510;2022-08-19T05:58:13;95477.88;;;17.49;100.00
7662;BME280;30314;48.184;11.510;2022-08-19T06:00:43;95482.09;;;17.50;100.00
7662;BME280;30314;48.184;11.510;2022-08-19T06:03:10;95462.69;;;17.37;100.00
7662;BME280;30314;48.184;11.510;2022-08-19T06:05:40;95466.91;;;17.38;100.00
7662;BME280;30314;48.184;11.510;2022-08-19T06:08:19;95429.59;;;17.09;100.00
7662;BME280;30314;48.184;11.510;2022-08-19T06:11:12;95490.81;;;17.46;100.00
7662;BME280;30314;48.184;11.510;2022-08-19T06:13:40;95482.00;;;17.46;100.00
7662;BME280;30314;48.184;11.510;2022-08-19T06:16:08;95386.44;;;16.79;100.00
7662;BME280;30314;48.184;11.510;2022-08-19T06:18:35;95491.78;;;17.54;100.00
7662;BME280;30314;48.184;11.510;2022-08-19T06:21:03;95474.59;;;17.39;100.00
7662;BME280;30314;48.184;11.510;2022-08-19T06:23:32;95500.44;;;17.51;100.00
7662;BME280;30314;48.184;11.510;2022-08-19T06:26:01;95504.94;;;17.47;100.00
7662;BME280;30314;48.184;11.510;2022-08-19T06:28:29;95491.75;;;17.38;100.00
7662;BME280;30314;48.184;11.510;2022-08-19T06:30:57;95506.38;;;17.44;100.00
7662;BME280;30314;48.184;11.510;2022-08-19T06:33:24;95423.50;;;16.96;100.00
7662;BME280;30314;48.184;11.510;2022-08-19T06:35:52;95487.63;;;17.41;100.00
7662;BME280;30314;48.184;11.510;2022-08-19T06:38:20;95495.69;;;17.44;100.00
7662;BME280;30314;48.184;11.510;2022-08-19T06:40:51;95494.69;;;17.49;100.00
7662;BME280;30314;48.184;11.510;2022-08-19T06:43:32;95500.81;;;17.50;100.00
7662;BME280;30314;48.184;11.510;2022-08-19T06:46:03;95495.09;;;17.51;100.00
7662;BME280;30314;48.184;11.510;2022-08-19T06:48:34;95493.66;;;17.54;100.00
7662;BME280;30314;48.184;11.510;2022-08-19T06:51:12;95494.69;;;17.49;100.00
7662;BME280;30314;48.184;11.510;2022-08-19T06:53:44;95507.38;;;17.52;100.00
7662;BME280;30314;48.184;11.510;2022-08-19T06:56:17;95508.03;;;17.49;100.00
7662;BME280;30314;48.184;11.510;2022-08-19T06:58:45;95485.00;;;17.44;100.00
7662;BME280;30314;48.184;11.510;2022-08-19T07:01:13;95465.19;;;17.29;100.00
7662;BME280;30314;48.184;11.510;2022-08-19T07:03:40;95497.13;;;17.54;100.00
7662;BME280;30314;48.184;11.510;2022-08-19T07:06:11;95492.28;;;17.60;100.00
7662;BME280;30314;48.184;11.510;2022-08-19T07:08:59;95479.25;;;17.58;100.00
7662;BME280;30314;48.184;11.510;2022-08-19T07:11:28;95429.84;;;17.20;100.00
7662;BME280;30314;48.184;11.510;2022-08-19T07:13:59;95326.50;;;16.60;100.00
7662;BME280;30314;48.184;11.510;2022-08-19T07:16:28;95392.44;;;17.04;100.00
7662;BME280;30314;48.184;11.510;2022-08-19T07:18:57;95472.72;;;17.72;100.00
7662;BME280;30314;48.184;11.510;2022-08-19T07:21:37;95416.31;;;17.29;100.00
7662;BME280;30314;48.184;11.510;2022-08-19T07:24:05;95473.22;;;17.78;100.00
7662;BME280;30314;48.184;11.510;2022-08-19T07:26:40;95410.88;;;17.41;100.00
7662;BME280;30314;48.184;11.510;2022-08-19T07:29:09;95456.16;;;17.82;100.00
7662;BME280;30314;48.184;11.510;2022-08-19T07:31:39;95458.72;;;17.79;100.00
7662;BME280;30314;48.184;11.510;2022-08-19T07:34:10;95376.69;;;17.15;100.00
7662;BME280;30314;48.184;11.510;2022-08-19T07:36:41;95447.00;;;17.83;100.00
7662;BME280;30314;48.184;11.510;2022-08-19T07:39:12;95446.22;;;17.83;100.00
7662;BME280;30314;48.184;11.510;2022-08-19T07:41:42;95457.00;;;18.02;100.00
7662;BME280;30314;48.184;11.510;2022-08-19T07:44:12;95452.16;;;17.92;100.00
7662;BME280;30314;48.184;11.510;2022-08-19T07:46:43;95452.94;;;17.93;100.00
7662;BME280;30314;48.184;11.510;2022-08-19T07:49:16;95457.41;;;17.88;100.00
7662;BME280;30314;48.184;11.510;2022-08-19T07:51:47;95467.50;;;17.95;100.00
7662;BME280;30314;48.184;11.510;2022-08-19T07:54:15;95469.00;;;17.93;100.00
7662;BME280;30314;48.184;11.510;2022-08-19T07:56:45;95455.03;;;17.83;100.00
7662;BME280;30314;48.184;11.510;2022-08-19T07:59:13;95466.56;;;17.87;100.00
7662;BME280;30314;48.184;11.510;2022-08-19T08:01:41;95439.78;;;17.68;100.00
7662;BME280;30314;48.184;11.510;2022-08-19T08:04:10;95481.75;;;17.83;100.00
7662;BME280;30314;48.184;11.510;2022-08-19T08:06:56;95477.13;;;17.80;100.00
7662;BME280;30314;48.184;11.510;2022-08-19T08:09:42;95476.75;;;17.82;100.00
7662;BME280;30314;48.184;11.510;2022-08-19T08:12:22;95477.97;;;17.84;100.00
7662;BME280;30314;48.184;11.510;2022-08-19T08:15:05;95467.88;;;17.94;100.00
7662;BME280;30314;48.184;11.510;2022-08-19T08:17:38;95433.13;;;17.61;100.00
7662;BME280;30314;48.184;11.510;2022-08-19T08:20:17;95476.84;;;17.69;100.00
7662;BME280;30314;48.184;11.510;2022-08-19T08:22:46;95467.34;;;17.56;100.00
7662;BME280;30314;48.184;11.510;2022-08-19T08:25:31;95487.34;;;17.78;100.00
7662;BME280;30314;48.184;11.510;2022-08-19T08:28:03;95468.13;;;17.56;100.00
7662;BME280;30314;48.184;11.510;2022-08-19T08:30:31;95421.22;;;17.27;100.00
7662;BME280;30314;48.184;11.510;2022-08-19T08:33:03;95481.00;;;17.67;100.00
7662;BME280;30314;48.184;11.510;2022-08-19T08:35:32;95488.75;;;17.72;100.00
7662;BME280;30314;48.184;11.510;2022-08-19T08:38:00;95485.22;;;17.68;100.00
7662;BME280;30314;48.184;11.510;2022-08-19T08:40:36;95495.22;;;17.71;100.00
7662;BME280;30314;48.184;11.510;2022-08-19T08:43:14;95495.81;;;17.80;100.00
7662;BME280;30314;48.184;11.510;2022-08-19T08:45:52;95498.94;;;17.82;100.00
7662;BME280;30314;48.184;11.510;2022-08-19T08:48:30;95455.28;;;17.46;100.00
7662;BME280;30314;48.184;11.510;2022-08-19T08:51:02;95412.28;;;17.19;100.00
7662;BME280;30314;48.184;11.510;2022-08-19T08:53:31;95511.50;;;17.82;100.00
7662;BME280;30314;48.184;11.510;2022-08-19T08:56:09;95522.56;;;17.80;100.00
7662;BME280;30314;48.184;11.510;2022-08-19T08:58:51;95491.22;;;17.65;100.00
7662;BME280;30314;48.184;11.510;2022-08-19T09:01:22;95511.88;;;17.80;100.00
7662;BME280;30314;48.184;11.510;2022-08-19T09:03:56;95511.94;;;17.84;100.00
7662;BME280;30314;48.184;11.510;2022-08-19T09:06:32;95510.56;;;17.74;100.00
7662;BME280;30314;48.184;11.510;2022-08-19T09:09:14;95523.09;;;17.86;100.00
7662;BME280;30314;48.184;11.510;2022-08-19T09:11:55;95526.50;;;17.86;100.00
7662;BME280;30314;48.184;11.510;2022-08-19T09:14:34;95518.16;;;17.88;100.00
7662;BME280;30314;48.184;11.510;2022-08-19T09:17:17;95521.34;;;17.94;100.00
7662;BME280;30314;48.184;11.510;2022-08-19T09:19:54;95501.59;;;17.82;100.00
7662;BME280;30314;48.184;11.510;2022-08-19T09:22:22;95514.44;;;17.93;100.00
7662;BME280;30314;48.184;11.510;2022-08-19T09:24:51;95498.50;;;17.80;100.00
7662;BME280;30314;48.184;11.510;2022-08-19T09:27:21;95502.03;;;17.84;100.00
7662;BME280;30314;48.184;11.510;2022-08-19T09:30:14;95513.56;;;17.88;100.00
7662;BME280;30314;48.184;11.510;2022-08-19T09:32:43;95521.69;;;17.92;100.00
7662;BME280;30314;48.184;11.510;2022-08-19T09:35:12;95523.16;;;17.89;100.00
7662;BME280;30314;48.184;11.510;2022-08-19T09:37:41;95524.97;;;17.85;100.00
7662;BME280;30314;48.184;11.510;2022-08-19T09:40:11;95523.16;;;17.89;100.00
7662;BME280;30314;48.184;11.510;2022-08-19T09:42:41;95524.69;;;17.90;100.00
7662;BME280;30314;48.184;11.510;2022-08-19T09:45:21;95529.38;;;17.94;100.00
7662;BME280;30314;48.184;11.510;2022-08-19T09:47:50;95526.94;;;17.88;100.00
7662;BME280;30314;48.184;11.510;2022-08-19T09:50:21;95518.78;;;17.81;100.00
7662;BME280;30314;48.184;11.510;2022-08-19T09:52:49;95488.75;;;17.72;100.00
7662;BME280;30314;48.184;11.510;2022-08-19T09:55:23;95516.53;;;17.83;100.00
7662;BME280;30314;48.184;11.510;2022-08-19T09:58:01;95496.16;;;17.79;100.00
7662;BME280;30314;48.184;11.510;2022-08-19T10:00:32;95524.78;;;17.94;100.00
7662;BME280;30314;48.184;11.510;2022-08-19T10:02:59;95502.03;;;17.84;100.00
7662;BME280;30314;48.184;11.510;2022-08-19T10:05:28;95497.09;;;17.86;100.00
7662;BME280;30314;48.184;11.510;2022-08-19T10:08:27;95526.88;;;18.17;100.00
7662;BME280;30314;48.184;11.510;2022-08-19T10:10:56;95519.28;;;18.19;100.00
7662;BME280;30314;48.184;11.510;2022-08-19T10:13:28;95529.88;;;18.31;100.00
7662;BME280;30314;48.184;11.510;2022-08-19T10:16:03;95530.56;;;18.28;100.00
7662;BME280;30314;48.184;11.510;2022-08-19T10:18:32;95530.81;;;18.23;100.00
7662;BME280;30314;48.184;11.510;2022-08-19T10:21:07;95526.19;;;18.20;100.00
7662;BME280;30314;48.184;11.510;2022-08-19T10:23:38;95532.63;;;18.35;100.00
7662;BME280;30314;48.184;11.510;2022-08-19T10:26:12;95520.94;;;18.43;100.00
7662;BME280;30314;48.184;11.510;2022-08-19T10:28:41;95510.00;;;18.49;100.00
7662;BME280;30314;48.184;11.510;2022-08-19T10:31:16;95512.28;;;18.50;100.00
7662;BME280;30314;48.184;11.510;2022-08-19T10:34:05;95512.97;;;18.63;100.00
7662;BME280;30314;48.184;11.510;2022-08-19T10:36:38;95511.50;;;18.85;100.00
7662;BME280;30314;48.184;11.510;2022-08-19T10:39:22;95516.66;;;19.14;100.00
7662;BME280;30314;48.184;11.510;2022-08-19T10:41:57;95514.38;;;19.36;100.00
7662;BME280;30314;48.184;11.510;2022-08-19T10:44:32;95502.81;;;19.55;100.00
7662;BME280;30314;48.184;11.510;2022-08-19T10:47:03;95509.75;;;19.79;100.00
7662;BME280;30314;48.184;11.510;2022-08-19T10:49:51;95511.91;;;19.70;100.00
7662;BME280;30314;48.184;11.510;2022-08-19T10:52:38;95391.50;;;18.71;100.00
7662;BME280;30314;48.184;11.510;2022-08-19T10:55:16;95515.72;;;19.46;100.00
7662;BME280;30314;48.184;11.510;2022-08-19T10:58:02;95517.44;;;19.57;100.00
7662;BME280;30314;48.184;11.510;2022-08-19T11:00:30;95502.72;;;19.48;100.00
7662;BME280;30314;48.184;11.510;2022-08-19T11:03:00;95514.69;;;19.54;100.00
7662;BME280;30314;48.184;11.510;2022-08-19T11:05:27;95513.06;;;19.49;100.00
7662;BME280;30314;48.184;11.510;2022-08-19T11:08:05;95507.88;;;19.37;100.00
7662;BME280;30314;48.184;11.510;2022-08-19T11:10:50;95498.09;;;19.44;100.00
7662;BME280;30314;48.184;11.510;2022-08-19T11:13:20;95504.28;;;19.49;100.00
7662;BME280;30314;48.184;11.510;2022-08-19T11:15:56;95504.38;;;19.56;100.00
7662;BME280;30314;48.184;11.510;2022-08-19T11:18:30;95500.53;;;19.53;100.00
7662;BME280;30314;48.184;11.510;2022-08-19T11:21:05;95479.75;;;19.50;100.00
7662;BME280;30314;48.184;11.510;2022-08-19T11:23:33;95480.41;;;19.43;100.00
7662;BME280;30314;48.184;11.510;2022-08-19T11:26:01;95479.72;;;19.47;100.00
7662;BME280;30314;48.184;11.510;2022-08-19T11:28:29;95469.41;;;19.25;100.00
7662;BME280;30314;48.184;11.510;2022-08-19T11:30:57;95498.00;;;19.41;100.00
7662;BME280;30314;48.184;11.510;2022-08-19T11:33:24;95500.81;;;19.48;100.00
7662;BME280;30314;48.184;11.510;2022-08-19T11:35:57;95494.47;;;19.37;100.00
7662;BME280;30314;48.184;11.510;2022-08-19T11:38:24;95509.22;;;19.47;100.00
7662;BME280;30314;48.184;11.510;2022-08-19T11:40:56;95490.13;;;19.28;100.00
7662;BME280;30314;48.184;11.510;2022-08-19T11:43:24;95511.28;;;19.34;100.00
7662;BME280;30314;48.184;11.510;2022-08-19T11:45:53;95489.84;;;19.34;100.00
7662;BME280;30314;48.184;11.510;2022-08-19T11:48:22;95500.97;;;19.36;100.00
7662;BME280;30314;48.184;11.510;2022-08-19T11:50:50;95513.75;;;19.23;100.00
7662;BME280;30314;48.184;11.510;2022-08-19T11:53:19;95503.88;;;19.27;100.00
7662;BME280;30314;48.184;11.510;2022-08-19T11:55:48;95512.28;;;19.06;100.00
7662;BME280;30314;48.184;11.510;2022-08-19T11:58:17;95483.72;;;18.94;100.00
7662;BME280;30314;48.184;11.510;2022-08-19T12:00:44;95518.78;;;19.05;100.00
7662;BME280;30314;48.184;11.510;2022-08-19T12:03:13;95505.84;;;18.91;100.00
7662;BME280;30314;48.184;11.510;2022-08-19T12:05:41;95422.50;;;18.33;100.00
7662;BME280;30314;48.184;11.510;2022-08-19T12:08:09;95505.38;;;18.85;100.00
7662;BME280;30314;48.184;11.510;2022-08-19T12:10:40;95514.38;;;18.96;100.00
7662;BME280;30314;48.184;11.510;2022-08-19T12:13:09;95512.06;;;19.14;100.00
7662;BME280;30314;48.184;11.510;2022-08-19T12:15:37;95497.88;;;18.94;100.00
7662;BME280;30314;48.184;11.510;2022-08-19T12:18:07;95496.50;;;19.00;100.00
7662;BME280;30314;48.184;11.510;2022-08-19T12:20:36;95512.38;;;19.09;100.00
7662;BME280;30314;48.184;11.510;2022-08-19T12:23:07;95507.50;;;19.15;100.00
7662;BME280;30314;48.184;11.510;2022-08-19T12:25:36;95521.38;;;19.21;100.00
7662;BME280;30314;48.184;11.510;2022-08-19T12:28:05;95510.75;;;19.24;100.00
7662;BME280;30314;48.184;11.510;2022-08-19T12:30:33;95528.63;;;19.40;100.00
7662;BME280;30314;48.184;11.510;2022-08-19T12:33:01;95519.72;;;19.36;100.00
7662;BME280;30314;48.184;11.510;2022-08-19T12:35:28;95454.16;;;19.06;100.00
7662;BME280;30314;48.184;11.510;2022-08-19T12:37:56;95533.53;;;19.57;100.00
7662;BME280;30314;48.184;11.510;2022-08-19T12:40:26;95465.63;;;19.07;100.00
7662;BME280;30314;48.184;11.510;2022-08-19T12:42:54;95519.03;;;19.39;100.00
7662;BME280;30314;48.184;11.510;2022-08-19T12:45:23;95483.72;;;19.33;100.00
7662;BME280;30314;48.184;11.510;2022-08-19T12:47:51;95514.28;;;19.52;100.00
7662;BME280;30314;48.184;11.510;2022-08-19T12:50:20;95467.16;;;19.27;100.00
7662;BME280;30314;48.184;11.510;2022-08-19T12:52:48;95539.31;;;19.83;100.00
7662;BME280;30314;48.184;11.510;2022-08-19T12:55:16;95543.00;;;19.75;100.00
7662;BME280;30314;48.184;11.510;2022-08-19T12:57:45;95540.28;;;19.94;100.00
7662;BME280;30314;48.184;11.510;2022-08-19T13:00:17;95540.91;;;19.88;100.00
7662;BME280;30314;48.184;11.510;2022-08-19T13:02:50;95530.97;;;19.88;100.00
7662;BME280;30314;48.184;11.510;2022-08-19T13:05:20;95540.56;;;20.12;100.00
7662;BME280;30314;48.184;11.510;2022-08-19T13:07:50;95542.25;;;20.21;100.00
7662;BME280;30314;48.184;11.510;2022-08-19T13:10:20;95538.41;;;20.22;100.00
7662;BME280;30314;48.184;11.510;2022-08-19T13:12:51;95483.34;;;19.81;100.00